Airfield :
LOGIN :

Register | Disclaimer

   EN    FR    IT 

 










Legend :    VFR   Marginal VFR   IFR   Intensive IFR   Very Intensive IFR
Visi :
Ceiling :
>= 8 km
>= 3000ft
5 to 8 km
1000 to 3000 ft
1500m to 5 km
500 to 1000 ft
800 to 1500m
200 to 500 ft
< 800m
< 200 ft
Symbols :   Thunderstorms  Fog  Heavy snow  Heavy precipitations  Wind > 20 kt
SIGMETs :     Misc.  Thunderstorms  Icing  Turbulence  Mountain Waves  Volcanic Ashes






- Airport Elevation : 512 ft
- IATA code : URO


LFOP - Rouen Vallée de Seine

CURRENT METAR :
  • 260300Z AUTO 17005KT 1800 1300 R22/2700D BR BKN001 BKN052 BKN062 03/03 Q1015

EXPIRED METARs :
  • 260230Z AUTO 16005KT 1500 1200 R22/2400U BR FEW001 BKN049 BKN058 02/02 Q1015
  • 260200Z AUTO 19002KT 1100 0900 R22/1900D BCFG BKN001 OVC098 02/02 Q1016
  • 260130Z AUTO 16005KT 1100 R22/1700U BR BKN001 02/02 Q1016
  • 260100Z AUTO 16004KT 1200 1000 R22/1500D BR NSC 02/02 Q1016
  • 260030Z AUTO 15005KT 0900 0750 R22/1700U FG VV/// 02/02 Q1016
  • 260000Z AUTO 15004KT 0350 0300 R22/0400N FG VV/// 02/02 Q1016

TAF TAF LFOP
Valid from the 25 at 18:00 until the 26 at 18:00 UTC


251700Z 2518/2618 14006KT 0500 FG VV///
TEMPO 2518/2610 0200
BECMG 2610/2612 20013KT 3000 BR BKN004 OVC013
ATIS : +33 2 35 80 80 34
Met : +33 2 32 86 52 80



MET'MAP, your aeronautical weather chart ! - Copyright ORBIFLY December 2007 - Disclaimer

ORBIFLY MET'MAP TEAM :

Programming & Development : Alexandra Zaïnal
Concept & original design : Baudouin d'Aumeries
Assistance for programming : Marc-Olivier Méhu
Technical & hardware support : Manuel Goepfert

Contact : metmap@orbifly.com




SOURCES & CREDITS :

   NOAA